Time;durP1;ratioP1;P1;durP2;ratioP2;P2;SDS_P1;SDS_P2;PMS_P1;PMS_P2;Temp;Humidity;BMP_temperature;BMP_pressure;BME280_temperature;BME280_humidity;BME280_pressure;Samples;Min_cycle;Max_cycle;Signal;HPM_P1;HPM_P2
2022/04/13 00:02:04;;;;;;;4.22;1.05;;;7.10;74.30;;;;;;4958897;28;20077;-86
2022/04/13 00:04:30;;;;;;;5.63;2.08;;;7.10;72.90;;;;;;4958738;28;20030;-86
2022/04/13 00:06:56;;;;;;;;;;;7.00;77.00;;;;;;4959150;28;20038;-86
2022/04/13 00:09:21;;;;;;;8.68;3.60;;;6.80;88.60;;;;;;4958564;28;19906;-86
2022/04/13 00:11:47;;;;;;;;;;;6.60;91.20;;;;;;4958958;28;20034;-86
2022/04/13 00:14:13;;;;;;;5.97;2.60;;;6.40;94.70;;;;;;4958529;28;19906;-86
2022/04/13 00:16:39;;;;;;;7.68;3.00;;;6.20;94.70;;;;;;4958382;28;20450;-87
2022/04/13 00:19:05;;;;;;;5.88;3.13;;;6.00;95.40;;;;;;4958609;28;20051;-86
2022/04/13 00:21:31;;;;;;;12.93;3.63;;;5.90;96.50;;;;;;4957859;28;20077;-86
2022/04/13 00:23:56;;;;;;;7.93;3.30;;;5.70;97.10;;;;;;4958422;28;20491;-86
2022/04/13 00:26:22;;;;;;;;;;;5.70;97.80;;;;;;4958751;28;20041;-85
2022/04/13 00:28:48;;;;;;;8.93;3.78;;;5.50;98.60;;;;;;4958265;28;19910;-87
2022/04/13 00:31:14;;;;;;;9.73;3.35;;;5.40;98.70;;;;;;4975317;28;20033;-86
2022/04/13 00:33:39;;;;;;;;;;;5.40;99.20;;;;;;4958636;28;20062;-86
2022/04/13 00:36:05;;;;;;;6.97;3.15;;;5.40;99.90;;;;;;4958216;28;19910;-86
2022/04/13 00:38:31;;;;;;;10.40;4.30;;;5.30;99.90;;;;;;4958273;28;20034;-86
2022/04/13 00:40:56;;;;;;;9.23;3.75;;;5.20;99.90;;;;;;4975066;28;20050;-86
2022/04/13 00:43:24;;;;;;;13.48;3.85;;;5.10;99.90;;;;;;4957994;28;20118;-85
2022/04/13 00:45:50;;;;;;;7.20;3.08;;;5.10;99.90;;;;;;4957871;28;20099;-86
2022/04/13 00:48:34;;;;;;;10.43;4.35;;;5.10;99.90;;;;;;4957591;28;20135;-86
2022/04/13 00:50:59;;;;;;;9.50;3.70;;;5.10;99.90;;;;;;4957578;28;20031;-86
2022/04/13 00:53:26;;;;;;;9.52;3.65;;;5.00;99.90;;;;;;4957664;28;20038;-86
2022/04/13 00:55:55;;;;;;;11.38;4.72;;;4.90;99.90;;;;;;4957537;28;20062;-86
2022/04/13 00:58:31;;;;;;;12.13;4.18;;;4.90;99.90;;;;;;4957767;28;20027;-86
2022/04/13 01:00:57;;;;;;;10.57;3.60;;;4.90;99.90;;;;;;4957693;28;20034;-86
2022/04/13 01:03:24;;;;;;;;;;;4.90;99.90;;;;;;4957903;28;20027;-86
2022/04/13 01:05:50;;;;;;;;;;;4.90;99.90;;;;;;4973900;28;20281;-86
2022/04/13 01:08:17;;;;;;;8.75;3.45;;;4.90;99.90;;;;;;4956942;28;19942;-87
2022/04/13 01:10:48;;;;;;;4.28;1.75;;;4.90;99.90;;;;;;4957325;28;20105;-86
2022/04/13 01:13:15;;;;;;;4.63;1.60;;;5.00;99.90;;;;;;4957271;28;20487;-85
2022/04/13 01:15:42;;;;;;;5.07;1.77;;;5.00;98.00;;;;;;4957416;28;20035;-85
2022/04/13 01:18:08;;;;;;;5.65;2.28;;;5.10;97.40;;;;;;4957137;28;20030;-86
2022/04/13 01:20:34;;;;;;;6.93;2.55;;;5.20;98.20;;;;;;4957051;28;20042;-86
2022/04/13 01:23:01;;;;;;;5.65;2.03;;;5.20;98.70;;;;;;4974229;28;20030;-85
2022/04/13 01:25:28;;;;;;;6.38;2.75;;;5.20;99.10;;;;;;4974515;28;20034;-84
2022/04/13 01:27:54;;;;;;;8.38;3.38;;;5.10;99.80;;;;;;4974447;28;20110;-86
2022/04/13 01:30:23;;;;;;;;;;;5.10;99.90;;;;;;4957678;28;20113;-85
2022/04/13 01:32:50;;;;;;;6.72;3.65;;;5.00;99.90;;;;;;4957071;28;19906;-85
2022/04/13 01:35:16;;;;;;;5.13;2.05;;;4.90;99.90;;;;;;4957151;28;20163;-85
2022/04/13 01:37:42;;;;;;;4.97;2.00;;;4.90;99.90;;;;;;4974089;28;20506;-84
2022/04/13 01:40:08;;;;;;;;;;;4.90;99.00;;;;;;4957274;28;20038;-86
2022/04/13 01:42:33;;;;;;;6.40;1.90;;;4.90;98.80;;;;;;4956374;28;19918;-85
2022/04/13 01:44:59;;;;;;;6.13;2.75;;;5.00;98.30;;;;;;4956543;28;20051;-86
2022/04/13 01:47:25;;;;;;;;;;;5.00;98.30;;;;;;4957466;28;20097;-85
2022/04/13 01:49:50;;;;;;;4.95;1.38;;;5.00;98.80;;;;;;4956832;28;19906;-86
2022/04/13 01:52:16;;;;;;;5.18;1.60;;;4.90;98.90;;;;;;4974034;28;20034;-85
2022/04/13 01:54:41;;;;;;;7.10;1.52;;;4.90;99.20;;;;;;4956718;28;20054;-85
2022/04/13 01:57:07;;;;;;;3.40;1.30;;;4.80;99.20;;;;;;4956848;28;20042;-85
2022/04/13 01:59:33;;;;;;;6.35;2.03;;;4.80;99.40;;;;;;4959033;28;20039;-85
2022/04/13 02:01:58;;;;;;;3.80;1.38;;;4.70;99.50;;;;;;4978128;28;20379;-85
2022/04/13 02:04:25;;;;;;;4.20;2.40;;;4.70;99.60;;;;;;4960738;28;20478;-85
2022/04/13 02:06:53;;;;;;;4.28;1.48;;;4.70;99.40;;;;;;4960404;28;20026;-85
2022/04/13 02:09:19;;;;;;;3.33;1.63;;;4.70;99.20;;;;;;4960695;28;20403;-86
2022/04/13 02:11:45;;;;;;;;;;;4.60;99.80;;;;;;4960912;28;20389;-85
2022/04/13 02:14:12;;;;;;;7.43;1.75;;;4.60;99.60;;;;;;4960781;28;19912;-86
2022/04/13 02:16:39;;;;;;;4.18;1.60;;;4.70;99.40;;;;;;4960451;28;20483;-86
2022/04/13 02:19:07;;;;;;;7.43;1.25;;;4.70;99.90;;;;;;4960458;28;20483;-85
2022/04/13 02:21:35;;;;;;;3.67;1.60;;;4.70;99.00;;;;;;4960424;28;20526;-86
2022/04/13 02:24:01;;;;;;;3.80;1.83;;;4.80;98.60;;;;;;4960039;28;20534;-85
2022/04/13 02:26:26;;;;;;;3.65;1.63;;;4.80;97.80;;;;;;4960356;28;20034;-84
2022/04/13 02:28:53;;;;;;;;;;;4.80;98.70;;;;;;4960462;28;20082;-85
2022/04/13 02:31:19;;;;;;;6.15;1.65;;;4.80;97.50;;;;;;4959956;28;20378;-85
2022/04/13 02:33:44;;;;;;;2.67;1.27;;;4.80;98.00;;;;;;4960258;28;20026;-85
2022/04/13 02:36:11;;;;;;;2.85;1.33;;;4.80;98.30;;;;;;4960199;28;20039;-85
2022/04/13 02:38:36;;;;;;;2.90;1.50;;;4.80;98.60;;;;;;4959930;28;20031;-85
2022/04/13 02:41:02;;;;;;;4.22;2.05;;;4.70;98.90;;;;;;4977238;28;20173;-84
2022/04/13 02:43:28;;;;;;;9.90;1.92;;;4.80;99.40;;;;;;4976937;28;20027;-85
2022/04/13 02:45:54;;;;;;;;;;;4.60;99.50;;;;;;4977671;28;20043;-85
2022/04/13 02:48:20;;;;;;;5.10;1.80;;;4.60;99.80;;;;;;4960148;28;19914;-85
2022/04/13 02:50:46;;;;;;;5.72;1.60;;;4.60;99.80;;;;;;4959747;28;20070;-85
2022/04/13 02:53:12;;;;;;;4.70;1.33;;;4.50;99.90;;;;;;4977025;28;20159;-84
2022/04/13 02:55:37;;;;;;;7.10;2.22;;;4.50;99.90;;;;;;4976855;28;20414;-85
2022/04/13 02:58:03;;;;;;;4.47;2.15;;;4.60;99.90;;;;;;4959635;28;20031;-84
2022/04/13 03:00:29;;;;;;;11.20;3.15;;;4.50;99.90;;;;;;4976497;28;20046;-86
2022/04/13 03:02:55;;;;;;;9.40;3.80;;;4.50;99.90;;;;;;4959595;28;20023;-85
2022/04/13 03:05:21;;;;;;;9.65;3.72;;;4.40;99.90;;;;;;4959814;28;20129;-85
2022/04/13 03:07:46;;;;;;;8.70;4.13;;;4.40;99.90;;;;;;4959586;28;20063;-84
2022/04/13 03:10:12;;;;;;;6.75;3.45;;;4.50;99.90;;;;;;4976502;28;20035;-85
2022/04/13 03:12:38;;;;;;;7.03;3.03;;;4.40;99.90;;;;;;4976473;28;20033;-85
2022/04/13 03:15:07;;;;;;;6.00;2.38;;;4.40;99.90;;;;;;4959211;28;20062;-85
2022/04/13 03:17:33;;;;;;;7.40;2.00;;;4.50;99.80;;;;;;4959383;28;20026;-84
2022/04/13 03:19:59;;;;;;;5.03;2.25;;;4.50;99.80;;;;;;4959573;28;20093;-85
2022/04/13 03:22:25;;;;;;;6.35;2.53;;;4.50;99.70;;;;;;4959510;28;20047;-85
2022/04/13 03:24:51;;;;;;;8.30;2.03;;;4.50;99.90;;;;;;4959104;28;20023;-85
2022/04/13 03:27:18;;;;;;;7.10;2.40;;;4.50;99.90;;;;;;4976593;28;20026;-84
2022/04/13 03:29:43;;;;;;;5.88;2.17;;;4.40;99.90;;;;;;4958688;28;20030;-85
2022/04/13 03:32:09;;;;;;;3.80;1.75;;;4.40;99.90;;;;;;4976372;28;20031;-85
2022/04/13 03:34:35;;;;;;;7.13;2.78;;;4.40;99.90;;;;;;4976231;28;20023;-84
2022/04/13 03:37:01;;;;;;;8.10;2.42;;;4.40;99.90;;;;;;4975549;28;20033;-85
2022/04/13 03:39:27;;;;;;;6.07;2.13;;;4.40;99.90;;;;;;4974617;28;20074;-85
2022/04/13 03:41:53;;;;;;;6.35;1.90;;;4.40;99.90;;;;;;4958970;28;20030;-84
2022/04/13 03:44:19;;;;;;;7.22;2.00;;;4.30;99.90;;;;;;4958698;28;20601;-84
2022/04/13 03:46:45;;;;;;;7.38;2.58;;;4.30;99.90;;;;;;4958761;28;20034;-85
2022/04/13 03:49:11;;;;;;;5.50;1.90;;;4.30;99.90;;;;;;4958804;28;20130;-85
2022/04/13 03:51:37;;;;;;;7.72;2.33;;;4.30;99.90;;;;;;4958859;28;20034;-85
2022/04/13 03:54:02;;;;;;;;;;;4.30;99.90;;;;;;4959097;28;20023;-85
2022/04/13 03:56:29;;;;;;;57.38;19.33;;;4.30;99.90;;;;;;4975752;28;19969;-84
2022/04/13 03:58:59;;;;;;;109.07;39.22;;;4.30;99.90;;;;;;4975771;28;20042;-85
2022/04/13 04:01:25;;;;;;;104.30;37.85;;;4.40;99.90;;;;;;4958491;28;20062;-84
2022/04/13 04:03:51;;;;;;;87.65;32.50;;;4.30;99.90;;;;;;4958571;28;20027;-85
2022/04/13 04:06:17;;;;;;;;;;;4.40;99.90;;;;;;4958952;28;20033;-85
2022/04/13 04:08:43;;;;;;;35.72;14.95;;;4.40;99.90;;;;;;4975420;28;19906;-85
2022/04/13 04:11:08;;;;;;;28.40;10.75;;;4.40;99.90;;;;;;4958465;28;20128;-84
2022/04/13 04:13:34;;;;;;;16.75;6.43;;;4.40;99.90;;;;;;4975019;28;20101;-85
2022/04/13 04:16:00;;;;;;;12.63;3.33;;;4.40;99.90;;;;;;4958210;28;20506;-85
2022/04/13 04:18:26;;;;;;;7.38;3.08;;;4.40;99.90;;;;;;4958172;28;20034;-85
2022/04/13 04:20:52;;;;;;;;;;;4.50;99.70;;;;;;4958319;28;20065;-85
2022/04/13 04:23:18;;;;;;;7.93;2.97;;;4.50;99.30;;;;;;4957758;28;20370;-84
2022/04/13 04:25:44;;;;;;;6.47;2.95;;;4.60;98.10;;;;;;4958213;28;20109;-85
2022/04/13 04:28:10;;;;;;;;;;;4.70;97.40;;;;;;4958368;28;20118;-84
2022/04/13 04:30:36;;;;;;;6.43;2.20;;;4.80;93.90;;;;;;4957872;28;20122;-83
2022/04/13 04:33:02;;;;;;;9.90;2.00;;;5.00;93.30;;;;;;4957738;28;20046;-85
2022/04/13 04:35:27;;;;;;;4.63;2.35;;;5.20;92.60;;;;;;4975252;28;20530;-84
2022/04/13 04:37:53;;;;;;;;;;;5.30;89.90;;;;;;4958292;28;20034;-85
2022/04/13 04:40:19;;;;;;;5.03;2.47;;;5.60;87.70;;;;;;4957685;28;19965;-84
2022/04/13 04:42:49;;;;;;;5.72;2.15;;;6.10;85.50;;;;;;4974739;28;20050;-85
2022/04/13 04:45:22;;;;;;;6.43;2.33;;;6.60;80.80;;;;;;4957586;28;20050;-85
2022/04/13 04:47:49;;;;;;;5.80;2.17;;;7.30;69.50;;;;;;4975298;28;20030;-85
2022/04/13 04:50:18;;;;;;;6.35;2.53;;;7.90;65.30;;;;;;4957789;28;20033;-86
2022/04/13 04:52:45;;;;;;;9.15;3.03;;;8.40;60.90;;;;;;4957339;28;20030;-86
2022/04/13 04:55:12;;;;;;;24.00;3.58;;;9.20;57.40;;;;;;4974794;28;20031;-86
2022/04/13 04:57:38;;;;;;;5.93;2.78;;;9.90;54.30;;;;;;4949507;28;20461;-86
2022/04/13 05:00:10;;;;;;;8.82;3.28;;;10.60;52.90;;;;;;4957838;28;20151;-85
2022/04/13 05:02:37;;;;;;;10.57;2.58;;;11.20;50.50;;;;;;4957434;28;20043;-84
2022/04/13 05:05:04;;;;;;;6.25;2.80;;;11.60;46.40;;;;;;4958020;28;20027;-85
2022/04/13 05:07:30;;;;;;;6.20;2.45;;;12.00;44.10;;;;;;4957594;28;20026;-85
2022/04/13 05:09:56;;;;;;;;;;;12.30;41.60;;;;;;4957777;28;20031;-85
2022/04/13 05:12:21;;;;;;;5.70;2.25;;;12.60;40.10;;;;;;4974571;28;19906;-86
2022/04/13 05:14:47;;;;;;;;;;;12.70;39.30;;;;;;4975266;28;20034;-86
2022/04/13 05:17:14;;;;;;;6.80;2.20;;;12.70;38.80;;;;;;4957607;28;20377;-86
2022/04/13 05:19:39;;;;;;;4.53;1.90;;;13.10;37.90;;;;;;4957210;28;20027;-86
2022/04/13 05:22:05;;;;;;;;;;;13.60;36.70;;;;;;4957943;28;20081;-86
2022/04/13 05:24:31;;;;;;;4.10;2.03;;;13.70;36.00;;;;;;4957133;28;20014;-87
2022/04/13 05:26:56;;;;;;;;;;;13.90;34.90;;;;;;4957596;28;20046;-87
2022/04/13 05:29:22;;;;;;;5.75;1.65;;;14.20;33.70;;;;;;4956909;28;20295;-87
2022/04/13 05:31:47;;;;;;;;;;;14.10;33.20;;;;;;4957828;28;20038;-86
2022/04/13 05:34:13;;;;;;;3.90;2.03;;;14.00;33.50;;;;;;4957143;28;19906;-87
2022/04/13 05:36:39;;;;;;;;;;;13.80;33.90;;;;;;4957328;28;20130;-86
2022/04/13 05:39:04;;;;;;;4.47;2.17;;;13.90;33.30;;;;;;4957170;28;20385;-86
2022/04/13 05:41:30;;;;;;;7.75;2.45;;;13.90;33.20;;;;;;4974200;28;20039;-87
2022/04/13 05:43:55;;;;;;;;;;;14.30;32.30;;;;;;4957505;28;20043;-87
2022/04/13 05:46:21;;;;;;;4.90;1.95;;;14.30;32.20;;;;;;4956971;28;19948;-87
2022/04/13 05:48:47;;;;;;;;;;;14.00;32.30;;;;;;4957361;28;20027;-87
2022/04/13 05:51:13;;;;;;;6.50;1.85;;;14.10;32.30;;;;;;4974498;28;19914;-86
2022/04/13 05:53:38;;;;;;;3.88;1.48;;;14.40;31.90;;;;;;4974239;28;20027;-86
2022/04/13 05:56:04;;;;;;;;;;;14.60;32.00;;;;;;4957471;28;20031;-87
2022/04/13 05:58:30;;;;;;;5.40;2.00;;;14.80;30.90;;;;;;4957103;28;19952;-87
2022/04/13 06:00:55;;;;;;;;;;;14.70;31.40;;;;;;4974225;28;20046;-88
2022/04/13 06:03:23;;;;;;;6.43;2.53;;;15.00;30.90;;;;;;4957080;28;19913;-88
2022/04/13 06:05:49;;;;;;;5.20;2.28;;;15.70;29.90;;;;;;4957022;28;20030;-88
2022/04/13 06:08:15;;;;;;;4.55;1.80;;;15.60;29.40;;;;;;4956770;28;20026;-88
2022/04/13 06:10:40;;;;;;;5.05;2.63;;;15.90;28.90;;;;;;4972844;28;20030;-87
2022/04/13 06:13:06;;;;;;;3.83;1.80;;;15.80;29.00;;;;;;4956887;28;20119;-87
2022/04/13 06:15:32;;;;;;;5.55;1.83;;;16.30;28.60;;;;;;4974110;28;20502;-87
2022/04/13 06:18:00;;;;;;;4.40;1.95;;;16.20;28.30;;;;;;4957042;28;20050;-87
2022/04/13 06:20:27;;;;;;;4.40;2.15;;;16.30;28.30;;;;;;4956867;28;20039;-87
2022/04/13 06:22:53;;;;;;;5.80;2.45;;;16.20;28.20;;;;;;4956611;28;20483;-87
2022/04/13 06:25:19;;;;;;;7.53;4.20;;;16.50;28.40;;;;;;4956746;28;20038;-88
2022/04/13 06:27:45;;;;;;;5.63;2.88;;;17.00;27.20;;;;;;4956769;28;20030;-87
2022/04/13 06:30:12;;;;;;;6.57;2.40;;;17.30;26.30;;;;;;4956916;28;20026;-87
2022/04/13 06:32:42;;;;;;;3.97;1.70;;;17.10;26.40;;;;;;4973763;28;20034;-88
2022/04/13 06:35:11;;;;;;;5.00;2.28;;;17.10;27.00;;;;;;4973783;28;20054;-87
2022/04/13 06:37:41;;;;;;;8.15;4.82;;;17.00;27.30;;;;;;4956671;28;20514;-87
2022/04/13 06:40:07;;;;;;;7.97;3.72;;;17.30;26.60;;;;;;4973694;28;20487;-88
2022/04/13 06:42:38;;;;;;;9.05;3.25;;;17.20;26.50;;;;;;4973796;28;20102;-87
2022/04/13 06:45:10;;;;;;;9.02;2.70;;;17.50;26.00;;;;;;4974858;28;20043;-87
2022/04/13 06:47:36;;;;;;;5.68;2.80;;;17.50;26.30;;;;;;4977201;28;20023;-87
2022/04/13 06:50:02;;;;;;;3.83;2.13;;;17.50;26.70;;;;;;4960021;28;20027;-87
2022/04/13 06:52:31;;;;;;;5.97;1.70;;;17.70;26.00;;;;;;4977043;28;20399;-86
2022/04/13 06:54:58;;;;;;;4.43;1.83;;;17.80;26.10;;;;;;4960023;28;20042;-87
2022/04/13 06:57:23;;;;;;;7.00;2.53;;;18.00;25.80;;;;;;4977027;28;20023;-88
2022/04/13 06:59:49;;;;;;;7.10;1.35;;;17.80;25.80;;;;;;4960070;28;20135;-88
2022/04/13 07:02:15;;;;;;;5.03;2.80;;;18.20;25.40;;;;;;4959708;28;20546;-87
2022/04/13 07:04:41;;;;;;;5.93;2.03;;;18.20;25.70;;;;;;4959639;28;20114;-88
2022/04/13 07:07:07;;;;;;;3.08;1.85;;;17.80;25.70;;;;;;4959646;28;20089;-87
2022/04/13 07:09:33;;;;;;;4.90;1.63;;;18.10;25.90;;;;;;4959742;28;20031;-88
2022/04/13 07:11:59;;;;;;;4.25;1.50;;;18.40;24.90;;;;;;4959578;28;20123;-88
2022/04/13 07:14:25;;;;;;;4.47;1.95;;;18.60;24.90;;;;;;4959622;28;20117;-87
2022/04/13 07:16:51;;;;;;;4.10;1.90;;;18.60;24.70;;;;;;4959411;28;20050;-87
2022/04/13 07:19:16;;;;;;;3.88;1.92;;;18.60;24.70;;;;;;4976831;28;20062;-86
2022/04/13 07:21:43;;;;;;;5.32;2.20;;;19.00;24.30;;;;;;4959180;28;20070;-88
2022/04/13 07:24:10;;;;;;;7.80;2.95;;;18.90;24.30;;;;;;4959364;28;20042;-87
2022/04/13 07:26:36;;;;;;;5.95;2.78;;;18.90;24.60;;;;;;4959077;28;20027;-87
2022/04/13 07:29:02;;;;;;;10.68;2.50;;;19.10;24.60;;;;;;4959498;28;20027;-88
2022/04/13 07:31:28;;;;;;;5.25;2.40;;;18.70;24.50;;;;;;4959059;28;20036;-88
2022/04/13 07:33:55;;;;;;;6.40;1.85;;;18.80;24.10;;;;;;4959212;28;20027;-88
2022/04/13 07:36:20;;;;;;;4.53;2.30;;;18.50;23.90;;;;;;4959208;28;20026;-87
2022/04/13 07:38:46;;;;;;;8.82;2.42;;;18.60;25.10;;;;;;4959116;28;20388;-87
2022/04/13 07:41:12;;;;;;;4.80;2.20;;;18.90;24.60;;;;;;4976404;28;20035;-88
2022/04/13 07:43:37;;;;;;;4.40;1.77;;;19.20;24.40;;;;;;4958933;28;20491;-88
2022/04/13 07:46:03;;;;;;;6.82;2.50;;;19.40;24.70;;;;;;4959000;28;20043;-87
2022/04/13 07:48:30;;;;;;;7.28;2.08;;;19.50;24.40;;;;;;4958965;28;20042;-87
2022/04/13 07:50:55;;;;;;;7.00;2.40;;;19.70;24.30;;;;;;4959078;28;20459;-86
2022/04/13 07:53:21;;;;;;;8.13;2.83;;;20.10;23.90;;;;;;4976215;28;20098;-88
2022/04/13 07:55:47;;;;;;;9.30;2.67;;;20.10;23.40;;;;;;4958280;28;20052;-87
2022/04/13 07:58:12;;;;;;;6.70;3.33;;;20.20;23.80;;;;;;4975501;28;20031;-88
2022/04/13 08:00:38;;;;;;;7.07;1.85;;;20.20;24.20;;;;;;4958203;28;20037;-88
2022/04/13 08:03:05;;;;;;;8.88;2.92;;;20.20;24.50;;;;;;4975833;28;20108;-88
2022/04/13 08:05:32;;;;;;;7.53;3.78;;;20.40;24.30;;;;;;4958661;28;20030;-87
2022/04/13 08:07:57;;;;;;;7.30;2.83;;;20.80;23.50;;;;;;4975746;28;20085;-87
2022/04/13 08:10:23;;;;;;;8.55;3.50;;;20.60;23.80;;;;;;4975946;28;20030;-88
2022/04/13 08:12:49;;;;;;;6.03;2.65;;;20.90;23.90;;;;;;4958402;28;20415;-87
2022/04/13 08:15:14;;;;;;;4.72;1.63;;;21.40;22.90;;;;;;4958608;28;20034;-87
2022/04/13 08:17:40;;;;;;;8.63;2.38;;;21.20;22.90;;;;;;4957969;28;20027;-86
2022/04/13 08:20:11;;;;;;;6.50;2.42;;;20.70;23.50;;;;;;4958513;28;20404;-88
2022/04/13 08:22:38;;;;;;;9.77;2.83;;;20.60;23.90;;;;;;4957710;28;20035;-86
2022/04/13 08:25:04;;;;;;;7.55;2.75;;;20.80;23.70;;;;;;4958255;28;20059;-87
2022/04/13 08:27:29;;;;;;;4.78;2.25;;;20.80;23.80;;;;;;4957925;28;20027;-87
2022/04/13 08:29:55;;;;;;;5.60;2.40;;;20.70;23.80;;;;;;4957869;28;20510;-87
2022/04/13 08:32:21;;;;;;;9.73;2.90;;;20.60;23.70;;;;;;4957937;28;20487;-87
2022/04/13 08:34:51;;;;;;;5.60;3.05;;;20.10;23.20;;;;;;4957715;28;20122;-87
2022/04/13 08:37:20;;;;;;;8.48;2.55;;;19.80;23.90;;;;;;4975458;28;20570;-87
2022/04/13 08:39:46;;;;;;;8.52;2.60;;;20.40;24.60;;;;;;4955245;28;20035;-88
2022/04/13 08:42:32;;;;;;;8.82;3.10;;;20.90;23.50;;;;;;4974049;28;20171;-87
2022/04/13 08:45:04;;;;;;;6.17;3.30;;;21.20;22.60;;;;;;4973243;28;20132;-88
2022/04/13 08:47:36;;;;;;;9.23;2.95;;;21.60;22.80;;;;;;4957884;28;20027;-88
2022/04/13 08:50:03;;;;;;;7.45;3.13;;;21.50;22.80;;;;;;4975057;28;20557;-88
2022/04/13 08:52:31;;;;;;;7.32;2.78;;;21.90;23.00;;;;;;4957404;28;20052;-88
2022/04/13 08:55:02;;;;;;;8.23;2.40;;;22.30;22.20;;;;;;4974950;28;20661;-89
2022/04/13 08:57:29;;;;;;;8.82;3.50;;;22.40;22.70;;;;;;4973710;28;20094;-89
2022/04/13 08:59:55;;;;;;;9.77;3.13;;;22.90;21.70;;;;;;4974819;28;20041;-85
2022/04/13 09:02:29;;;;;;;5.13;3.05;;;22.70;21.70;;;;;;4974850;28;20192;-85
2022/04/13 09:05:00;;;;;;;4.75;2.63;;;23.20;21.40;;;;;;4974717;28;20031;-85
2022/04/13 09:07:30;;;;;;;7.03;3.17;;;23.30;21.60;;;;;;4974529;28;20082;-85
2022/04/13 09:10:00;;;;;;;9.98;2.83;;;23.60;20.50;;;;;;4974612;28;20146;-85
2022/04/13 09:12:30;;;;;;;8.80;2.20;;;23.50;20.90;;;;;;4956911;28;20479;-84
2022/04/13 09:14:58;;;;;;;7.78;2.53;;;23.40;20.70;;;;;;4974552;28;20121;-85
2022/04/13 09:17:29;;;;;;;5.70;2.47;;;23.10;21.10;;;;;;4957166;28;20050;-84
2022/04/13 09:19:56;;;;;;;5.95;2.47;;;22.70;21.90;;;;;;4957253;28;20037;-85
2022/04/13 09:22:22;;;;;;;5.97;2.13;;;22.40;22.00;;;;;;4956815;28;20529;-84
2022/04/13 09:24:50;;;;;;;5.07;2.97;;;22.80;22.20;;;;;;4957227;28;20132;-85
2022/04/13 09:27:16;;;;;;;5.95;2.63;;;23.20;21.10;;;;;;4957132;28;20030;-84
2022/04/13 09:29:42;;;;;;;4.40;2.58;;;23.10;21.20;;;;;;4957027;28;20034;-84
2022/04/13 09:32:08;;;;;;;7.63;2.65;;;22.80;21.10;;;;;;4957357;28;20038;-85
2022/04/13 09:34:34;;;;;;;7.55;2.70;;;23.00;21.70;;;;;;4957005;28;20121;-84
2022/04/13 09:37:00;;;;;;;3.58;1.88;;;23.20;20.80;;;;;;4974171;28;20598;-84
2022/04/13 09:39:26;;;;;;;5.93;2.42;;;22.90;21.00;;;;;;4957053;28;20030;-84
2022/04/13 09:41:52;;;;;;;4.40;2.50;;;22.90;21.10;;;;;;4956900;28;20039;-87
2022/04/13 09:44:18;;;;;;;4.93;2.40;;;22.10;21.80;;;;;;4956404;28;20047;-87
2022/04/13 09:46:45;;;;;;;5.30;2.60;;;22.10;22.40;;;;;;4973823;28;20448;-87
2022/04/13 09:49:12;;;;;;;3.55;2.33;;;21.90;22.70;;;;;;4957038;28;20059;-88
2022/04/13 09:51:40;;;;;;;7.75;2.60;;;22.60;22.80;;;;;;4948749;28;20023;-87
2022/04/13 09:54:10;;;;;;;7.63;2.72;;;23.10;22.10;;;;;;4974102;28;20038;-88
2022/04/13 09:56:44;;;;;;;5.68;2.70;;;23.40;21.50;;;;;;4956880;28;20027;-84
2022/04/13 09:59:12;;;;;;;7.03;3.03;;;23.80;21.00;;;;;;4973776;28;20034;-85
2022/04/13 10:01:37;;;;;;;7.15;2.92;;;23.70;19.90;;;;;;4975295;28;20035;-85
2022/04/13 10:04:04;;;;;;;4.75;2.35;;;23.10;21.30;;;;;;4956348;28;20034;-84
2022/04/13 10:06:33;;;;;;;5.82;2.65;;;23.30;22.40;;;;;;4973914;28;20562;-86
2022/04/13 10:09:04;;;;;;;5.25;2.97;;;23.80;22.10;;;;;;4988566;28;20023;-84
2022/04/13 10:11:30;;;;;;;7.50;3.50;;;24.20;21.40;;;;;;4973920;28;20062;-86
2022/04/13 10:13:56;;;;;;;5.85;3.13;;;24.50;21.30;;;;;;4973729;28;20059;-86
2022/04/13 10:16:22;;;;;;;3.88;2.40;;;24.60;20.60;;;;;;4973508;28;20023;-85
2022/04/13 10:18:55;;;;;;;7.35;3.25;;;24.40;20.10;;;;;;4956495;28;20027;-84
2022/04/13 10:21:45;;;;;;;5.72;2.70;;;23.90;21.00;;;;;;4977060;28;20043;-85
2022/04/13 10:24:24;;;;;;;6.93;3.15;;;22.60;21.10;;;;;;4977654;28;20491;-84
2022/04/13 10:27:01;;;;;;;4.80;2.55;;;21.10;22.30;;;;;;4977333;28;20026;-84
2022/04/13 10:29:27;;;;;;;10.88;2.58;;;20.40;24.20;;;;;;4960313;28;20457;-84
2022/04/13 10:32:22;;;;;;;4.32;2.22;;;20.10;24.80;;;;;;4977260;28;20031;-84
2022/04/13 10:34:50;;;;;;;5.05;3.10;;;19.60;24.60;;;;;;4992239;28;20506;-85
2022/04/13 10:37:19;;;;;;;5.40;2.45;;;18.90;25.70;;;;;;4959991;28;20027;-84
2022/04/13 10:39:46;;;;;;;7.68;2.38;;;18.60;26.50;;;;;;4977026;28;20023;-84
2022/04/13 10:42:13;;;;;;;5.82;3.03;;;18.60;27.00;;;;;;4992255;28;20498;-83
2022/04/13 10:45:03;;;;;;;6.65;3.10;;;18.60;26.80;;;;;;4976840;28;20059;-84
2022/04/13 10:47:41;;;;;;;6.43;3.10;;;18.40;26.80;;;;;;4959772;28;20118;-84
2022/04/13 10:50:08;;;;;;;8.93;2.90;;;18.20;27.20;;;;;;4977306;28;20037;-84
2022/04/13 10:52:46;;;;;;;6.40;2.60;;;18.10;27.60;;;;;;4976824;28;20026;-85
2022/04/13 10:55:13;;;;;;;8.05;2.78;;;18.00;28.10;;;;;;4974046;28;20030;-84
2022/04/13 10:57:46;;;;;;;14.18;3.10;;;18.10;27.70;;;;;;4959580;28;20376;-84
2022/04/13 11:00:16;;;;;;;6.18;2.90;;;17.80;27.20;;;;;;4959527;28;20120;-84
2022/04/13 11:03:00;;;;;;;8.38;2.78;;;17.70;28.00;;;;;;4976710;28;20065;-85
2022/04/13 11:05:27;;;;;;;6.95;2.67;;;17.70;28.70;;;;;;4959648;28;20114;-86
2022/04/13 11:08:07;;;;;;;5.75;2.85;;;17.60;28.70;;;;;;4959548;28;20121;-85
2022/04/13 11:10:35;;;;;;;7.43;2.78;;;17.60;28.20;;;;;;4975418;28;20406;-84
2022/04/13 11:13:01;;;;;;;6.25;2.95;;;17.50;28.20;;;;;;4958377;28;20069;-83
2022/04/13 11:15:44;;;;;;;5.50;2.88;;;17.60;28.50;;;;;;4958086;28;20030;-84
2022/04/13 11:18:13;;;;;;;7.68;2.63;;;17.60;28.70;;;;;;4976487;28;20403;-85
2022/04/13 11:20:58;;;;;;;9.00;3.20;;;17.50;28.90;;;;;;4959152;28;20039;-85
2022/04/13 11:23:51;;;;;;;6.15;2.42;;;17.30;28.40;;;;;;4959122;28;20049;-84
2022/04/13 11:26:25;;;;;;;9.25;3.70;;;17.30;28.90;;;;;;4991481;28;20058;-83
2022/04/13 11:29:09;;;;;;;5.50;2.00;;;17.10;28.20;;;;;;4975056;28;20058;-84
2022/04/13 11:32:04;;;;;;;6.25;2.50;;;17.00;29.90;;;;;;4975131;28;20027;-84
2022/04/13 11:34:52;;;;;;;4.80;2.42;;;17.20;29.90;;;;;;4975082;28;20117;-85
2022/04/13 11:37:42;;;;;;;8.13;2.72;;;17.30;29.90;;;;;;4974978;28;20088;-84
2022/04/13 11:40:17;;;;;;;10.02;3.47;;;17.50;29.70;;;;;;4976500;28;20027;-85
2022/04/13 11:42:46;;;;;;;5.18;2.72;;;17.60;29.80;;;;;;4991011;28;20045;-85
2022/04/13 11:45:16;;;;;;;6.68;3.28;;;17.60;29.80;;;;;;4975032;28;20129;-85
2022/04/13 11:47:56;;;;;;;6.35;3.00;;;17.70;30.10;;;;;;4959517;28;20562;-85
2022/04/13 11:50:25;;;;;;;6.18;3.03;;;17.80;29.30;;;;;;4976377;28;20026;-84
2022/04/13 11:52:55;;;;;;;7.78;2.58;;;17.70;29.20;;;;;;4975776;28;20533;-85
2022/04/13 11:55:42;;;;;;;6.00;2.55;;;17.70;29.00;;;;;;4976130;28;20030;-84
2022/04/13 11:58:08;;;;;;;6.55;2.70;;;17.40;28.70;;;;;;4975912;28;20376;-84
2022/04/13 12:00:44;;;;;;;;;;;17.10;29.20;;;;;;4975102;28;20038;-84
2022/04/13 12:03:14;;;;;;;8.52;2.65;;;17.00;29.00;;;;;;4958552;28;19949;-85
2022/04/13 12:05:42;;;;;;;7.03;2.80;;;16.90;29.70;;;;;;4958292;28;20481;-85
2022/04/13 12:08:26;;;;;;;12.85;3.15;;;17.00;30.10;;;;;;4958669;28;20038;-84
2022/04/13 12:11:05;;;;;;;5.45;2.83;;;17.10;30.90;;;;;;4975519;28;20035;-84
2022/04/13 12:13:58;;;;;;;6.65;2.78;;;17.40;31.60;;;;;;4958529;28;20120;-84
2022/04/13 12:16:34;;;;;;;7.40;3.60;;;17.60;30.20;;;;;;4975538;28;20023;-85
2022/04/13 12:19:04;;;;;;;6.80;2.97;;;17.60;29.10;;;;;;4958342;28;20027;-83
2022/04/13 12:21:31;;;;;;;6.13;2.70;;;17.40;29.00;;;;;;4974988;28;20078;-84
2022/04/13 12:24:00;;;;;;;7.57;2.92;;;17.40;29.30;;;;;;4974864;28;20038;-84
2022/04/13 12:26:44;;;;;;;5.82;2.50;;;17.40;29.60;;;;;;4958099;28;20053;-84
2022/04/13 12:29:14;;;;;;;6.15;3.17;;;17.20;29.30;;;;;;4975132;28;20019;-84
2022/04/13 12:31:51;;;;;;;5.22;2.95;;;17.10;29.60;;;;;;4974392;28;20177;-85
2022/04/13 12:34:18;;;;;;;6.03;2.90;;;17.20;30.50;;;;;;4957986;28;20038;-85
2022/04/13 12:36:57;;;;;;;11.13;3.08;;;17.30;31.20;;;;;;4975304;28;20026;-85
2022/04/13 12:39:33;;;;;;;5.97;3.03;;;17.50;30.50;;;;;;4957954;28;20169;-84
2022/04/13 12:42:04;;;;;;;9.98;2.78;;;17.60;30.00;;;;;;4957424;28;20483;-84
2022/04/13 12:44:30;;;;;;;6.78;2.88;;;17.70;29.60;;;;;;4957160;28;20051;-84
2022/04/13 12:47:02;;;;;;;;;;;17.60;28.90;;;;;;4990487;28;20041;-84
2022/04/13 12:49:30;;;;;;;6.68;3.38;;;17.40;29.00;;;;;;4974918;28;19906;-85
2022/04/13 12:51:57;;;;;;;7.47;3.63;;;17.40;29.70;;;;;;4975165;28;20085;-85
2022/04/13 12:54:24;;;;;;;6.45;2.72;;;17.60;30.60;;;;;;4975262;28;20023;-85
2022/04/13 12:56:51;;;;;;;6.20;3.10;;;17.70;30.20;;;;;;4957476;28;20057;-85
2022/04/13 12:59:25;;;;;;;5.50;2.88;;;17.80;30.60;;;;;;4957724;28;20118;-83
2022/04/13 13:01:53;;;;;;;8.52;2.58;;;17.70;30.00;;;;;;4974523;28;20049;-84
2022/04/13 13:04:22;;;;;;;6.32;3.05;;;17.80;30.10;;;;;;4974803;28;20510;-88